Time;durP1;ratioP1;P1;durP2;ratioP2;P2;SDS_P1;SDS_P2;PMS_P1;PMS_P2;Temp;Humidity;BMP_temperature;BMP_pressure;BME280_temperature;BME280_humidity;BME280_pressure;Samples;Min_cycle;Max_cycle;Signal;HPM_P1;HPM_P2
2020/12/09 00:01:17;;;;;;;;;;;4.50;99.90;;;;;;5098703;28;20007;-71
2020/12/09 00:03:42;;;;;;;;;;;4.40;99.90;;;;;;5071528;28;19923;-71
2020/12/09 00:06:08;;;;;;;;;;;4.40;99.90;;;;;;5099877;28;19973;-71
2020/12/09 00:08:34;;;;;;;;;;;4.30;99.90;;;;;;5089526;28;19956;-71
2020/12/09 00:11:00;;;;;;;;;;;4.40;99.90;;;;;;5100318;28;19916;-71
2020/12/09 00:13:25;;;;;;;;;;;4.30;99.90;;;;;;5097053;28;19991;-71
2020/12/09 00:15:51;;;;;;;;;;;4.30;99.90;;;;;;5102864;28;19954;-71
2020/12/09 00:18:17;;;;;;;;;;;4.40;99.90;;;;;;5090839;28;19903;-71
2020/12/09 00:20:42;;;;;;;;;;;4.40;99.90;;;;;;5101044;28;19922;-71
2020/12/09 00:23:08;;;;;;;;;;;4.40;99.90;;;;;;5089116;28;19930;-71
2020/12/09 00:25:33;;;;;;;;;;;4.40;99.90;;;;;;5100184;28;19908;-71
2020/12/09 00:27:59;;;;;;;;;;;4.30;99.90;;;;;;5089048;28;20619;-71
2020/12/09 00:30:25;;;;;;;;;;;4.30;99.90;;;;;;5099047;28;19908;-71
2020/12/09 00:32:50;;;;;;;;;;;4.40;99.90;;;;;;5089344;28;19908;-71
2020/12/09 00:35:16;;;;;;;;;;;4.30;99.90;;;;;;5097321;28;19930;-71
2020/12/09 00:37:41;;;;;;;;;;;4.30;99.90;;;;;;5101549;27;20010;-71
2020/12/09 00:40:07;;;;;;;;;;;4.40;99.90;;;;;;5108377;27;19910;-71
2020/12/09 00:42:33;;;;;;;;;;;4.40;99.90;;;;;;5100987;28;19908;-71
2020/12/09 00:44:59;;;;;;;;;;;4.40;99.90;;;;;;5102049;28;19915;-71
2020/12/09 00:47:25;;;;;;;;;;;4.30;99.90;;;;;;5093125;28;19904;-71
2020/12/09 00:52:42;;;;;;;;;;;4.30;99.90;;;;;;5073719;28;19991;-71
2020/12/09 00:55:08;;;;;;;;;;;4.30;99.90;;;;;;5096324;28;20010;-71
2020/12/09 00:57:34;;;;;;;;;;;4.40;99.90;;;;;;5091752;28;19928;-71
2020/12/09 00:59:59;;;;;;;;;;;4.30;99.90;;;;;;5073412;28;19908;-71
2020/12/09 01:02:25;;;;;;;;;;;4.10;99.90;;;;;;5112937;28;19915;-71
2020/12/09 01:04:51;;;;;;;;;;;4.40;99.90;;;;;;5083565;28;19915;-71
2020/12/09 01:07:17;;;;;;;;;;;4.30;99.90;;;;;;5093970;28;19973;-71
2020/12/09 01:09:43;;;;;;;;;;;4.30;99.90;;;;;;5108062;28;19920;-71
2020/12/09 01:12:09;;;;;;;;;;;4.30;99.90;;;;;;5095132;28;20615;-71
2020/12/09 01:14:34;;;;;;;;;;;4.30;99.90;;;;;;5091127;28;19961;-71
2020/12/09 01:17:00;;;;;;;;;;;4.30;99.90;;;;;;5096195;28;19960;-71
2020/12/09 01:19:26;;;;;;;;;;;4.30;99.90;;;;;;5105645;28;19946;-71
2020/12/09 01:21:51;;;;;;;;;;;4.20;99.90;;;;;;5096997;28;19910;-71
2020/12/09 01:24:17;;;;;;;;;;;4.30;99.90;;;;;;5090237;28;20274;-71
2020/12/09 01:26:45;;;;;;;;;;;4.20;99.90;;;;;;5096867;28;19915;-71
2020/12/09 01:29:11;;;;;;;;;;;4.20;99.90;;;;;;5090101;28;19933;-72
2020/12/09 01:31:36;;;;;;;;;;;4.30;99.90;;;;;;5096877;28;19930;-70
2020/12/09 01:34:02;;;;;;;;;;;4.30;99.90;;;;;;5089881;28;19924;-70
2020/12/09 01:36:28;;;;;;;;;;;4.40;99.90;;;;;;5096803;28;19911;-70
2020/12/09 01:38:53;;;;;;;;;;;4.40;99.90;;;;;;5112783;28;19943;-70
2020/12/09 01:41:20;;;;;;;;;;;4.50;99.90;;;;;;5096999;28;19912;-70
2020/12/09 01:43:46;;;;;;;;;;;4.50;99.90;;;;;;5104055;28;19920;-70
2020/12/09 01:46:15;;;;;;;;;;;4.50;99.90;;;;;;5101279;28;20276;-70
2020/12/09 01:48:42;;;;;;;;;;;4.50;99.90;;;;;;5092261;28;19935;-70
2020/12/09 01:51:07;;;;;;;;;;;4.70;99.90;;;;;;5102778;28;19960;-70
2020/12/09 01:53:33;;;;;;;;;;;4.80;99.90;;;;;;5092132;28;19976;-70
2020/12/09 01:55:58;;;;;;;;;;;4.80;99.90;;;;;;5103056;28;19977;-71
2020/12/09 01:58:24;;;;;;;;;;;4.70;99.90;;;;;;5091863;28;20016;-71
2020/12/09 02:00:53;;;;;;;;;;;4.70;99.90;;;;;;5103103;28;19921;-70
2020/12/09 02:03:18;;;;;;;;;;;4.90;99.90;;;;;;5091707;28;19908;-70
2020/12/09 02:05:44;;;;;;;;;;;4.80;99.90;;;;;;5103055;28;19927;-70
2020/12/09 02:08:09;;;;;;;;;;;4.80;99.90;;;;;;5091724;28;19923;-71
2020/12/09 02:10:35;;;;;;;;;;;4.90;99.90;;;;;;5102789;28;19930;-70
2020/12/09 02:13:00;;;;;;;;;;;4.80;99.90;;;;;;5091822;28;19908;-70
2020/12/09 02:15:26;;;;;;;;;;;4.90;99.90;;;;;;5101567;28;20018;-70
2020/12/09 02:17:51;;;;;;;;;;;5.00;99.90;;;;;;5092371;28;19916;-70
2020/12/09 02:20:17;;;;;;;;;;;4.90;99.90;;;;;;5100343;28;19911;-70
2020/12/09 02:22:51;;;;;;;;;;;5.00;99.90;;;;;;5093419;28;20053;-72
2020/12/09 02:25:16;;;;;;;;;;;5.00;99.90;;;;;;5100192;28;19904;-73
2020/12/09 02:27:42;;;;;;;;;;;5.10;99.90;;;;;;5093634;28;20392;-72
2020/12/09 02:30:07;;;;;;;;;;;5.00;99.90;;;;;;5098668;28;19915;-72
2020/12/09 02:32:33;;;;;;;;;;;5.00;99.90;;;;;;5094710;28;19980;-72
2020/12/09 02:34:58;;;;;;;;;;;5.00;99.90;;;;;;5097468;28;19980;-72
2020/12/09 02:37:24;;;;;;;;;;;4.80;99.90;;;;;;5101797;27;19907;-72
2020/12/09 02:39:49;;;;;;;;;;;5.00;99.90;;;;;;5113373;27;20325;-72
2020/12/09 02:42:15;;;;;;;;;;;4.90;99.90;;;;;;5103687;28;20003;-72
2020/12/09 02:44:40;;;;;;;;;;;4.80;99.90;;;;;;5104355;28;19966;-72
2020/12/09 02:47:06;;;;;;;;;;;5.00;99.90;;;;;;5098338;28;19976;-72
2020/12/09 02:49:31;;;;;;;;;;;4.90;99.90;;;;;;5093066;28;20345;-72
2020/12/09 02:51:57;;;;;;;;;;;4.90;99.90;;;;;;5099393;28;19964;-72
2020/12/09 02:54:22;;;;;;;;;;;5.00;99.90;;;;;;5093131;28;20013;-72
2020/12/09 02:56:48;;;;;;;;;;;5.10;99.90;;;;;;5108207;28;19919;-72
2020/12/09 02:59:14;;;;;;;;;;;5.00;99.90;;;;;;5109134;28;19934;-73
2020/12/09 03:01:39;;;;;;;;;;;5.10;99.90;;;;;;5110098;28;19904;-77
2020/12/09 03:04:05;;;;;;;;;;;5.10;99.90;;;;;;5109097;28;19908;-74
2020/12/09 03:06:30;;;;;;;;;;;5.10;99.90;;;;;;5106780;28;19912;-73
2020/12/09 03:08:56;;;;;;;;;;;5.00;99.90;;;;;;5107914;28;19908;-72
2020/12/09 03:11:21;;;;;;;;;;;5.00;99.90;;;;;;5108755;28;19927;-73
2020/12/09 03:13:47;;;;;;;;;;;5.10;99.90;;;;;;5108487;28;19920;-70
2020/12/09 03:16:13;;;;;;;;;;;5.00;99.90;;;;;;5100674;28;20325;-70
2020/12/09 03:18:38;;;;;;;;;;;5.10;99.90;;;;;;5091303;28;19915;-70
2020/12/09 03:21:06;;;;;;;;;;;5.10;99.90;;;;;;5105704;28;20406;-71
2020/12/09 03:23:33;;;;;;;;;;;5.00;99.90;;;;;;5090037;28;19978;-71
2020/12/09 03:25:58;;;;;;;;;;;5.10;99.90;;;;;;5100973;28;19908;-71
2020/12/09 03:28:24;;;;;;;;;;;5.10;99.90;;;;;;5105504;28;19904;-71
2020/12/09 03:30:49;;;;;;;;;;;5.00;99.90;;;;;;5116579;27;20370;-71
2020/12/09 03:33:15;;;;;;;;;;;5.20;99.90;;;;;;5099306;28;19922;-70
2020/12/09 03:35:40;;;;;;;;;;;5.10;99.90;;;;;;5104512;28;20453;-71
2020/12/09 03:38:07;;;;;;;;;;;5.10;99.90;;;;;;5107507;27;20356;-71
2020/12/09 03:40:32;;;;;;;;;;;5.00;99.90;;;;;;5090313;28;19988;-71
2020/12/09 03:42:58;;;;;;;;;;;5.10;99.90;;;;;;5109657;28;20477;-72
2020/12/09 03:45:23;;;;;;;;;;;5.10;99.90;;;;;;5102919;28;20387;-70
2020/12/09 03:47:49;;;;;;;;;;;5.10;99.90;;;;;;5108495;28;19904;-70
2020/12/09 03:50:14;;;;;;;;;;;5.00;99.90;;;;;;5103178;28;19919;-71
2020/12/09 03:52:40;;;;;;;;;;;5.10;99.90;;;;;;5092161;28;19908;-72
2020/12/09 03:55:05;;;;;;;;;;;5.10;99.90;;;;;;5096672;28;20496;-71
2020/12/09 03:57:31;;;;;;;;;;;5.10;99.90;;;;;;5075143;28;19904;-71
2020/12/09 03:59:56;;;;;;;;;;;5.20;99.90;;;;;;5095275;28;19908;-71
2020/12/09 04:02:22;;;;;;;;;;;5.20;99.90;;;;;;5094637;28;19904;-71
2020/12/09 04:04:47;;;;;;;;;;;5.20;99.90;;;;;;5097890;28;19908;-71
2020/12/09 04:07:13;;;;;;;;;;;5.10;99.90;;;;;;5106910;28;19914;-70
2020/12/09 04:09:38;;;;;;;;;;;5.20;99.90;;;;;;5102683;28;19915;-70
2020/12/09 04:12:04;;;;;;;;;;;5.10;99.90;;;;;;5104584;28;19920;-72
2020/12/09 04:14:30;;;;;;;;;;;5.10;99.90;;;;;;5089657;28;20007;-70
2020/12/09 04:16:56;;;;;;;;;;;5.10;99.90;;;;;;5100529;28;20396;-72
2020/12/09 04:19:21;;;;;;;;;;;5.10;99.90;;;;;;5103744;28;19947;-71
2020/12/09 04:21:47;;;;;;;;;;;5.20;99.90;;;;;;5097992;28;20416;-70
2020/12/09 04:24:12;;;;;;;;;;;5.20;99.90;;;;;;5091208;28;20291;-71
2020/12/09 04:26:38;;;;;;;;;;;5.20;99.90;;;;;;5097779;28;20348;-70
2020/12/09 04:29:03;;;;;;;;;;;5.10;99.90;;;;;;5090940;28;19911;-71
2020/12/09 04:31:29;;;;;;;;;;;5.10;99.90;;;;;;5078962;28;19912;-70
2020/12/09 04:33:55;;;;;;;;;;;5.10;99.90;;;;;;5101070;28;19998;-71
2020/12/09 04:36:21;;;;;;;;;;;4.90;99.90;;;;;;5099879;28;19904;-72
2020/12/09 04:38:47;;;;;;;;;;;5.10;99.90;;;;;;5118846;27;19946;-71
2020/12/09 04:41:13;;;;;;;;;;;5.00;99.90;;;;;;5099246;28;20380;-73
2020/12/09 04:43:38;;;;;;;;;;;5.00;99.90;;;;;;5106835;28;20329;-71
2020/12/09 04:46:04;;;;;;;;;;;5.10;99.90;;;;;;5098902;28;19908;-70
2020/12/09 04:48:29;;;;;;;;;;;5.00;99.90;;;;;;5088080;28;19933;-71
2020/12/09 04:50:58;;;;;;;;;;;5.00;99.90;;;;;;5099670;28;20018;-71
2020/12/09 04:53:25;;;;;;;;;;;5.00;99.90;;;;;;5088291;28;19908;-73
2020/12/09 04:55:52;;;;;;;;;;;5.10;99.90;;;;;;5099198;28;19919;-70
2020/12/09 04:58:36;;;;;;;;;;;4.90;99.90;;;;;;5108513;28;20309;-71
2020/12/09 05:01:05;;;;;;;;;;;5.00;99.90;;;;;;5099164;28;20356;-72
2020/12/09 05:03:39;;;;;;;;;;;5.10;99.90;;;;;;5087889;28;19910;-71
2020/12/09 05:06:04;;;;;;;;;;;5.00;99.90;;;;;;5099246;28;19969;-71
2020/12/09 05:08:32;;;;;;;;;;;4.90;99.90;;;;;;5111519;28;19903;-71
2020/12/09 05:11:00;;;;;;;;;;;5.00;99.90;;;;;;5110982;28;19938;-69
2020/12/09 05:13:26;;;;;;;;;;;5.00;99.90;;;;;;5113563;28;19958;-71
2020/12/09 05:15:56;;;;;;;;;;;4.90;99.90;;;;;;5099485;28;19936;-73
2020/12/09 05:18:30;;;;;;;;;;;5.10;99.90;;;;;;5088041;28;19999;-71
2020/12/09 05:20:57;;;;;;;;;;;5.00;99.90;;;;;;5098706;28;19911;-71
2020/12/09 05:23:24;;;;;;;;;;;5.00;99.90;;;;;;5112844;28;19943;-71
2020/12/09 05:25:50;;;;;;;;;;;5.00;99.90;;;;;;5104041;28;20352;-71
2020/12/09 05:28:15;;;;;;;;;;;5.10;99.90;;;;;;5092230;28;20002;-71
2020/12/09 05:30:44;;;;;;;;;;;5.00;99.90;;;;;;5103165;28;19926;-70
2020/12/09 05:33:20;;;;;;;;;;;5.00;99.90;;;;;;5092155;28;20368;-70
2020/12/09 05:36:15;;;;;;;;;;;5.00;99.90;;;;;;5103317;28;19915;-70
2020/12/09 05:38:41;;;;;;;;;;;4.90;99.90;;;;;;5102788;27;20424;-70
2020/12/09 05:41:12;;;;;;;;;;;5.00;99.90;;;;;;5078649;28;19908;-70
2020/12/09 05:43:45;;;;;;;;;;;5.10;99.90;;;;;;5125927;27;19946;-71
2020/12/09 05:46:11;;;;;;;;;;;5.00;99.90;;;;;;5101063;28;20387;-71
2020/12/09 05:48:36;;;;;;;;;;;5.00;99.90;;;;;;5092667;28;19903;-70
2020/12/09 05:51:02;;;;;;;;;;;5.10;99.90;;;;;;5102918;28;20337;-71
2020/12/09 05:53:31;;;;;;;;;;;5.00;99.90;;;;;;5099303;27;19904;-70
2020/12/09 05:56:09;;;;;;;;;;;5.20;99.90;;;;;;5108998;27;19938;-70
2020/12/09 05:58:37;;;;;;;;;;;5.10;99.90;;;;;;5109162;28;19918;-70
2020/12/09 06:01:10;;;;;;;;;;;5.10;99.90;;;;;;5102810;28;20044;-70
2020/12/09 06:03:36;;;;;;;;;;;5.10;99.90;;;;;;5091798;28;20019;-71
2020/12/09 06:06:16;;;;;;;;;;;5.10;99.90;;;;;;5102536;28;19915;-70
2020/12/09 06:08:43;;;;;;;;;;;5.20;99.90;;;;;;5091912;28;19904;-70
2020/12/09 06:11:08;;;;;;;;;;;5.10;99.90;;;;;;5102652;28;19916;-70
2020/12/09 06:13:34;;;;;;;;;;;5.10;99.90;;;;;;5091369;28;20265;-71
2020/12/09 06:16:01;;;;;;;;;;;5.10;99.90;;;;;;5102819;28;19908;-71
2020/12/09 06:18:28;;;;;;;;;;;5.10;99.90;;;;;;5091447;28;19904;-71
2020/12/09 06:20:54;;;;;;;;;;;5.10;99.90;;;;;;5102853;28;20314;-71
2020/12/09 06:23:20;;;;;;;;;;;5.00;99.90;;;;;;5091496;28;19912;-73
2020/12/09 06:25:46;;;;;;;;;;;5.80;99.90;;;;;;5086838;28;19907;-71
2020/12/09 06:28:15;;;;;;;;;;;5.40;99.90;;;;;;5073385;28;19955;-72
2020/12/09 06:30:41;;;;;;;;;;;5.20;99.90;;;;;;5084147;28;19922;-72
2020/12/09 06:33:07;;;;;;;;;;;5.20;99.90;;;;;;5091418;28;20229;-71
2020/12/09 06:35:33;;;;;;;;;;;5.10;99.90;;;;;;5101446;28;19920;-72
2020/12/09 06:38:07;;;;;;;;;;;5.20;99.90;;;;;;5108959;28;19915;-71
2020/12/09 06:40:35;;;;;;;;;;;5.10;99.90;;;;;;5107019;28;19907;-73
2020/12/09 06:43:07;;;;;;;;;;;5.00;99.90;;;;;;5109108;28;19903;-71
2020/12/09 06:45:43;;;;;;;;;;;5.10;99.90;;;;;;5103771;28;19916;-73
2020/12/09 06:48:09;;;;;;;;;;;5.60;99.90;;;;;;5109844;28;20529;-77
2020/12/09 06:50:34;;;;;;;;;;;5.30;99.90;;;;;;5109039;28;19915;-71
2020/12/09 06:53:19;;;;;;;;;;;5.10;99.90;;;;;;5110753;28;20263;-71
2020/12/09 06:55:45;;;;;;;;;;;5.00;99.90;;;;;;5105201;28;20464;-71
2020/12/09 06:58:30;;;;;;;;;;;4.80;99.90;;;;;;5109566;28;19930;-71
2020/12/09 07:01:05;;;;;;;;;;;4.90;99.90;;;;;;5106529;28;19907;-71
2020/12/09 07:03:35;;;;;;;;;;;4.70;99.90;;;;;;5109389;28;19998;-72
2020/12/09 07:06:21;;;;;;;;;;;4.60;99.90;;;;;;5109167;28;19994;-72
2020/12/09 07:08:47;;;;;;;;;;;4.60;99.90;;;;;;5090600;28;20458;-72
2020/12/09 07:11:13;;;;;;;;;;;4.50;99.90;;;;;;5101192;28;19919;-71
2020/12/09 07:13:38;;;;;;;;;;;4.50;99.90;;;;;;5090299;28;19984;-71
2020/12/09 07:16:05;;;;;;;;;;;4.60;99.90;;;;;;5101261;28;19919;-72
2020/12/09 07:18:32;;;;;;;;;;;4.40;99.90;;;;;;5089184;28;19946;-73
2020/12/09 07:20:58;;;;;;;;;;;4.40;99.90;;;;;;5109596;28;21227;-72
2020/12/09 07:23:24;;;;;;;;;;;4.50;99.90;;;;;;5107048;28;19941;-72
2020/12/09 07:25:49;;;;;;;;;;;4.50;99.90;;;;;;5102130;28;19908;-70
2020/12/09 07:28:15;;;;;;;;;;;4.30;99.90;;;;;;5102078;28;19911;-70
2020/12/09 07:30:40;;;;;;;;;;;4.40;99.90;;;;;;5103054;28;19915;-70
2020/12/09 07:33:06;;;;;;;;;;;4.50;99.90;;;;;;5089843;28;19911;-70
2020/12/09 07:35:31;;;;;;;;;;;4.50;99.90;;;;;;5104053;28;19915;-69
2020/12/09 07:37:59;;;;;;;;;;;4.30;99.90;;;;;;5108758;27;20042;-70
2020/12/09 07:40:27;;;;;;;;;;;4.40;99.90;;;;;;5107159;28;19968;-70
2020/12/09 07:43:02;;;;;;;;;;;4.40;99.90;;;;;;5108708;28;20388;-70
2020/12/09 07:45:27;;;;;;;;;;;4.40;99.90;;;;;;5103055;28;19916;-70
2020/12/09 07:48:00;;;;;;;;;;;4.40;99.90;;;;;;5109172;28;19911;-72
2020/12/09 07:50:25;;;;;;;;;;;4.50;99.90;;;;;;5103587;28;20002;-71
2020/12/09 07:52:51;;;;;;;;;;;4.60;99.90;;;;;;5106819;28;20109;-72
2020/12/09 07:55:18;;;;;;;;;;;4.60;99.90;;;;;;5090275;28;19915;-71
2020/12/09 07:57:43;;;;;;;;;;;4.70;99.90;;;;;;5111716;28;20022;-70
2020/12/09 08:00:13;;;;;;;;;;;4.50;99.90;;;;;;5108387;28;20374;-73
2020/12/09 08:02:42;;;;;;;;;;;4.50;99.90;;;;;;5108012;28;19900;-72
2020/12/09 08:05:18;;;;;;;;;;;4.60;99.90;;;;;;5104891;28;20042;-72
2020/12/09 08:07:44;;;;;;;;;;;4.60;99.90;;;;;;5107972;28;20096;-71
2020/12/09 08:10:11;;;;;;;;;;;4.60;99.90;;;;;;5102223;28;19912;-71
2020/12/09 08:12:37;;;;;;;;;;;4.60;99.90;;;;;;5094265;28;19939;-70
2020/12/09 08:15:06;;;;;;;;;;;4.70;99.90;;;;;;5103545;28;19908;-72
2020/12/09 08:17:32;;;;;;;;;;;4.60;99.90;;;;;;5093532;28;19911;-75
2020/12/09 08:20:01;;;;;;;;;;;4.70;99.90;;;;;;5094383;28;20165;-74
2020/12/09 08:22:27;;;;;;;;;;;4.60;99.90;;;;;;5094134;28;20327;-75
2020/12/09 08:25:02;;;;;;;;;;;4.70;99.90;;;;;;5093699;28;19915;-74
2020/12/09 08:27:27;;;;;;;;;;;4.60;99.90;;;;;;5075689;28;19915;-73
2020/12/09 08:29:53;;;;;;;;;;;4.70;99.90;;;;;;5095671;28;19908;-73
2020/12/09 08:32:18;;;;;;;;;;;4.90;99.90;;;;;;5104655;28;19923;-73
2020/12/09 08:34:44;;;;;;;;;;;5.30;99.90;;;;;;5106026;28;20355;-71
2020/12/09 08:37:16;;;;;;;;;;;5.40;99.90;;;;;;5107815;28;19904;-76
2020/12/09 08:39:41;;;;;;;;;;;5.30;99.90;;;;;;5101781;28;20260;-71
2020/12/09 08:42:07;;;;;;;;;;;5.30;99.90;;;;;;5103834;28;19923;-71
2020/12/09 08:44:32;;;;;;;;;;;5.40;99.90;;;;;;5101454;28;20090;-71
2020/12/09 08:46:58;;;;;;;;;;;5.50;99.90;;;;;;5097290;28;20093;-84
2020/12/09 08:49:23;;;;;;;;;;;5.50;99.90;;;;;;5104108;28;19908;-79
2020/12/09 08:51:49;;;;;;;;;;;5.70;99.90;;;;;;5111690;28;19915;-84
2020/12/09 08:54:14;;;;;;;;;;;5.80;99.90;;;;;;5107188;28;20368;-85
2020/12/09 08:56:40;;;;;;;;;;;6.00;99.90;;;;;;5111174;28;20002;-78
2020/12/09 08:59:05;;;;;;;;;;;6.10;99.90;;;;;;5107944;28;19908;-82
2020/12/09 09:01:37;;;;;;;;;;;6.10;99.90;;;;;;5104178;28;19908;-77
2020/12/09 09:04:06;;;;;;;;;;;5.90;99.90;;;;;;5103245;28;19907;-79
2020/12/09 09:06:32;;;;;;;;;;;5.90;99.90;;;;;;5095342;28;19914;-78
2020/12/09 09:08:57;;;;;;;;;;;5.80;99.90;;;;;;5087633;28;19912;-79
2020/12/09 09:11:24;;;;;;;;;;;5.90;99.90;;;;;;5079158;28;19935;-79
2020/12/09 09:13:50;;;;;;;;;;;5.70;99.90;;;;;;5090462;28;19904;-79
2020/12/09 09:16:15;;;;;;;;;;;6.00;99.90;;;;;;5104737;28;19908;-78
2020/12/09 09:18:41;;;;;;;;;;;6.10;99.90;;;;;;5106034;28;19992;-77
2020/12/09 09:21:07;;;;;;;;;;;6.00;99.90;;;;;;5097304;28;19904;-80
2020/12/09 09:23:32;;;;;;;;;;;6.10;99.90;;;;;;5085990;28;20390;-77
2020/12/09 09:25:58;;;;;;;;;;;6.10;99.90;;;;;;5097471;28;20295;-79
2020/12/09 09:28:23;;;;;;;;;;;6.00;99.90;;;;;;5101836;28;19915;-77
2020/12/09 09:30:49;;;;;;;;;;;6.00;99.90;;;;;;5101408;28;20520;-76
2020/12/09 09:33:14;;;;;;;;;;;6.30;99.90;;;;;;5106103;28;20017;-77
2020/12/09 09:35:40;;;;;;;;;;;6.20;99.90;;;;;;5087648;28;19914;-76
2020/12/09 09:38:05;;;;;;;;;;;6.20;99.90;;;;;;5106940;28;19937;-77
2020/12/09 09:40:31;;;;;;;;;;;6.40;99.90;;;;;;5104800;28;19916;-77
2020/12/09 09:42:56;;;;;;;;;;;6.50;99.90;;;;;;5104916;28;19904;-77
2020/12/09 09:45:23;;;;;;;;;;;6.50;99.90;;;;;;5099856;28;19923;-79
2020/12/09 09:47:49;;;;;;;;;;;6.50;99.90;;;;;;5107005;28;19908;-77
2020/12/09 09:50:14;;;;;;;;;;;6.50;99.90;;;;;;5100830;28;19911;-71
2020/12/09 09:52:40;;;;;;;;;;;6.60;99.90;;;;;;5110949;28;19961;-79
2020/12/09 09:55:05;;;;;;;;;;;6.60;99.90;;;;;;5100439;28;19907;-78
2020/12/09 09:57:33;;;;;;;;;;;6.50;99.90;;;;;;5101438;28;19908;-77
2020/12/09 09:59:58;;;;;;;;;;;6.60;99.90;;;;;;5105226;28;20018;-74
2020/12/09 10:02:24;;;;;;;;;;;6.60;99.90;;;;;;5107132;28;20065;-82
2020/12/09 10:04:51;;;;;;;;;;;6.60;99.90;;;;;;5101483;28;19911;-75
2020/12/09 10:07:16;;;;;;;;;;;6.60;99.90;;;;;;5103541;28;20283;-76
2020/12/09 10:09:42;;;;;;;;;;;6.60;99.90;;;;;;5104989;28;19908;-76
2020/12/09 10:12:07;;;;;;;;;;;6.60;99.90;;;;;;5099353;28;19915;-78
2020/12/09 10:14:33;;;;;;;;;;;6.60;99.90;;;;;;5093007;28;19961;-76
2020/12/09 10:16:59;;;;;;;;;;;6.70;99.90;;;;;;5100076;28;20022;-74
2020/12/09 10:19:25;;;;;;;;;;;6.70;99.90;;;;;;5092506;28;20007;-78
2020/12/09 10:21:50;;;;;;;;;;;6.70;99.90;;;;;;5108302;28;19980;-73
2020/12/09 10:24:16;;;;;;;;;;;6.90;99.90;;;;;;5088705;28;19998;-75
2020/12/09 10:26:43;;;;;;;;;;;6.70;99.90;;;;;;5099113;28;20020;-80
2020/12/09 10:29:09;;;;;;;;;;;6.80;99.90;;;;;;5096398;28;19953;-79
2020/12/09 10:31:48;;;;;;;;;;;6.90;99.90;;;;;;5089195;28;20324;-78
2020/12/09 10:34:15;;;;;;;;;;;6.70;99.90;;;;;;5106274;28;20003;-77
2020/12/09 10:36:48;;;;;;;;;;;6.80;99.90;;;;;;5108702;28;20368;-77
2020/12/09 10:39:14;;;;;;;;;;;6.70;99.90;;;;;;5120558;27;19918;-80
2020/12/09 10:41:40;;;;;;;;;;;6.70;99.90;;;;;;5078391;28;19904;-77
2020/12/09 10:44:05;;;;;;;;;;;6.70;99.90;;;;;;5108281;28;19951;-76
2020/12/09 10:46:32;;;;;;;;;;;6.80;99.90;;;;;;5099422;28;20068;-72
2020/12/09 10:48:58;;;;;;;;;;;6.80;99.90;;;;;;5091073;28;19912;-74
2020/12/09 10:51:24;;;;;;;;;;;6.80;99.90;;;;;;5100142;28;19916;-72
2020/12/09 10:53:49;;;;;;;;;;;6.70;99.90;;;;;;5090394;28;20006;-71
2020/12/09 10:56:15;;;;;;;;;;;6.80;99.90;;;;;;5101297;28;19950;-73
2020/12/09 10:58:40;;;;;;;;;;;6.70;99.90;;;;;;5090544;28;19904;-72
2020/12/09 11:01:06;;;;;;;;;;;6.70;99.90;;;;;;5101951;28;19904;-71
2020/12/09 11:03:31;;;;;;;;;;;6.70;99.90;;;;;;5090524;28;20396;-74
2020/12/09 11:05:57;;;;;;;;;;;6.70;99.90;;;;;;5101671;28;20256;-75
2020/12/09 11:08:22;;;;;;;;;;;6.70;99.90;;;;;;5090440;28;20291;-73
2020/12/09 11:10:48;;;;;;;;;;;6.80;99.90;;;;;;5101612;28;19922;-72
2020/12/09 11:13:13;;;;;;;;;;;6.80;99.90;;;;;;5090738;28;19995;-72
2020/12/09 11:15:39;;;;;;;;;;;6.80;99.90;;;;;;5100810;28;19908;-71
2020/12/09 11:18:05;;;;;;;;;;;6.90;99.90;;;;;;5107519;28;19926;-71
2020/12/09 11:20:30;;;;;;;;;;;6.80;99.90;;;;;;5104745;28;19930;-72
2020/12/09 11:22:56;;;;;;;;;;;6.90;99.90;;;;;;5108261;28;19903;-71
2020/12/09 11:25:22;;;;;;;;;;;6.90;99.90;;;;;;5101697;28;19918;-72
2020/12/09 11:27:48;;;;;;;;;;;6.60;99.90;;;;;;5089971;28;19904;-72
2020/12/09 11:30:14;;;;;;;;;;;6.60;99.90;;;;;;5096875;28;20525;-72
2020/12/09 11:32:39;;;;;;;;;;;6.70;99.90;;;;;;5099470;28;20471;-71
2020/12/09 11:35:05;;;;;;;;;;;6.70;99.90;;;;;;5103284;28;19987;-71
2020/12/09 11:37:34;;;;;;;;;;;6.60;99.90;;;;;;5102617;27;20046;-71
2020/12/09 11:39:59;;;;;;;;;;;6.60;99.90;;;;;;5111941;27;19961;-71
2020/12/09 11:42:25;;;;;;;;;;;6.60;99.90;;;;;;5103764;28;19908;-72
2020/12/09 11:44:50;;;;;;;;;;;6.70;99.90;;;;;;5105509;28;20226;-70
2020/12/09 11:47:16;;;;;;;;;;;6.50;99.90;;;;;;5106064;28;20002;-70
2020/12/09 11:49:41;;;;;;;;;;;6.70;99.90;;;;;;5102489;28;19923;-70
2020/12/09 11:52:07;;;;;;;;;;;6.70;99.90;;;;;;5097440;28;20305;-72
2020/12/09 11:54:32;;;;;;;;;;;6.60;99.90;;;;;;5091505;28;19914;-74
2020/12/09 11:57:01;;;;;;;;;;;6.80;99.90;;;;;;5108148;28;19904;-74
2020/12/09 11:59:26;;;;;;;;;;;6.80;99.90;;;;;;5104040;28;20022;-69
2020/12/09 12:01:52;;;;;;;;;;;6.90;99.90;;;;;;5097841;28;20011;-67
2020/12/09 12:04:18;;;;;;;;;;;6.90;99.90;;;;;;5091228;28;19999;-70
2020/12/09 12:06:43;;;;;;;;;;;7.10;99.90;;;;;;5097977;28;19969;-71
2020/12/09 12:09:09;;;;;;;;;;;7.20;99.90;;;;;;5073255;28;19912;-72
2020/12/09 12:11:34;;;;;;;;;;;7.20;99.90;;;;;;5074213;28;19981;-71
2020/12/09 12:14:00;;;;;;;;;;;7.30;99.90;;;;;;5100004;28;19938;-71
2020/12/09 12:16:25;;;;;;;;;;;7.30;99.90;;;;;;5102373;28;19911;-71
2020/12/09 12:18:52;;;;;;;;;;;7.30;99.90;;;;;;5106720;28;20376;-73
2020/12/09 12:21:19;;;;;;;;;;;7.70;99.90;;;;;;5099269;28;20380;-71
2020/12/09 12:23:46;;;;;;;;;;;8.50;99.90;;;;;;5107991;28;20417;-72
2020/12/09 12:26:18;;;;;;;;;;;8.60;99.90;;;;;;5099945;28;19911;-73
2020/12/09 12:28:44;;;;;;;;;;;8.30;99.90;;;;;;5088497;28;19912;-71
2020/12/09 12:31:10;;;;;;;;;;;8.20;99.90;;;;;;5099967;28;19923;-72
2020/12/09 12:33:36;;;;;;;;;;;8.20;99.90;;;;;;5088817;28;19927;-74
2020/12/09 12:36:02;;;;;;;;;;;7.90;99.90;;;;;;5104268;28;20737;-73
2020/12/09 12:38:28;;;;;;;;;;;7.60;99.90;;;;;;5109538;28;19903;-73
2020/12/09 12:40:53;;;;;;;;;;;7.70;99.90;;;;;;5100913;28;19969;-73
2020/12/09 12:43:19;;;;;;;;;;;7.80;99.90;;;;;;5104486;28;20307;-72
2020/12/09 12:45:44;;;;;;;;;;;7.70;99.90;;;;;;5102253;28;20403;-72
2020/12/09 12:48:12;;;;;;;;;;;7.80;99.90;;;;;;5110540;28;20285;-73
2020/12/09 12:50:38;;;;;;;;;;;7.90;99.90;;;;;;5084280;28;19961;-73
2020/12/09 12:53:03;;;;;;;;;;;8.10;99.90;;;;;;5089502;28;20344;-73
2020/12/09 12:55:29;;;;;;;;;;;8.00;99.90;;;;;;5099702;28;19972;-72
2020/12/09 12:57:54;;;;;;;;;;;8.10;99.90;;;;;;5091869;28;19965;-74
2020/12/09 13:00:20;;;;;;;;;;;7.80;99.90;;;;;;5096519;28;19908;-74
2020/12/09 13:02:46;;;;;;;;;;;8.10;99.90;;;;;;5073622;28;19908;-74
2020/12/09 13:05:11;;;;;;;;;;;8.10;99.90;;;;;;5100459;28;19916;-75
2020/12/09 13:07:37;;;;;;;;;;;7.90;99.90;;;;;;5105642;28;19908;-76
2020/12/09 13:10:03;;;;;;;;;;;7.90;99.90;;;;;;5089260;28;19912;-76
2020/12/09 13:12:28;;;;;;;;;;;8.00;99.90;;;;;;5105344;28;20002;-75
2020/12/09 13:14:54;;;;;;;;;;;8.20;99.90;;;;;;5112630;28;19903;-74
2020/12/09 13:17:19;;;;;;;;;;;8.40;99.90;;;;;;5110048;28;19904;-74
2020/12/09 13:19:45;;;;;;;;;;;8.40;99.90;;;;;;5102892;28;19943;-74
2020/12/09 13:22:11;;;;;;;;;;;8.40;99.90;;;;;;5096419;28;19904;-74
2020/12/09 13:24:37;;;;;;;;;;;8.40;99.90;;;;;;5089881;28;20559;-74
2020/12/09 13:27:02;;;;;;;;;;;8.30;99.90;;;;;;5097084;28;19998;-74
2020/12/09 13:29:28;;;;;;;;;;;8.40;99.90;;;;;;5091143;28;20053;-75
2020/12/09 13:31:53;;;;;;;;;;;8.40;99.90;;;;;;5099507;28;19922;-75
2020/12/09 13:34:19;;;;;;;;;;;8.40;99.90;;;;;;5104741;28;19914;-73
2020/12/09 13:36:46;;;;;;;;;;;8.30;99.90;;;;;;5096998;28;19903;-75
2020/12/09 13:39:11;;;;;;;;;;;8.50;99.90;;;;;;5098787;28;19908;-73
2020/12/09 13:41:37;;;;;;;;;;;8.60;99.90;;;;;;5100036;28;19954;-75
2020/12/09 13:44:02;;;;;;;;;;;8.60;99.90;;;;;;5109554;28;19916;-75
2020/12/09 13:46:28;;;;;;;;;;;8.50;99.90;;;;;;5101600;28;20399;-75
2020/12/09 13:48:57;;;;;;;;;;;8.50;99.90;;;;;;5090924;28;20655;-76
2020/12/09 13:51:23;;;;;;;;;;;8.50;99.90;;;;;;5102347;28;20060;-78
2020/12/09 13:53:49;;;;;;;;;;;8.50;99.90;;;;;;5091506;28;19980;-76
2020/12/09 13:56:14;;;;;;;;;;;8.40;99.90;;;;;;5102737;28;20382;-74
2020/12/09 13:58:40;;;;;;;;;;;8.50;99.90;;;;;;5090730;28;19904;-73
2020/12/09 14:01:05;;;;;;;;;;;8.60;99.90;;;;;;5103119;28;20007;-73
2020/12/09 14:03:31;;;;;;;;;;;8.50;99.90;;;;;;5090829;28;20334;-74
2020/12/09 14:05:56;;;;;;;;;;;8.60;99.90;;;;;;5102592;28;20300;-75
2020/12/09 14:08:22;;;;;;;;;;;8.80;99.90;;;;;;5091353;28;19910;-74
2020/12/09 14:10:47;;;;;;;;;;;8.90;99.90;;;;;;5102753;28;19911;-76
2020/12/09 14:13:13;;;;;;;;;;;9.10;99.90;;;;;;5094122;28;19915;-75
2020/12/09 14:15:38;;;;;;;;;;;9.20;99.90;;;;;;5100953;28;19923;-76
2020/12/09 14:18:04;;;;;;;;;;;9.00;99.90;;;;;;5092102;28;20202;-75
2020/12/09 14:20:30;;;;;;;;;;;9.10;99.90;;;;;;5101752;28;19911;-76
2020/12/09 14:22:55;;;;;;;;;;;9.70;99.90;;;;;;5087370;28;21386;-77
2020/12/09 14:25:21;;;;;;;;;;;9.70;99.90;;;;;;5103989;28;19908;-77
2020/12/09 14:27:47;;;;;;;;;;;10.10;99.90;;;;;;5106390;28;19937;-76
2020/12/09 14:30:12;;;;;;;;;;;10.10;99.90;;;;;;5106992;28;19972;-73